Main page
METAR-TAF:

METAR-TAF

Airports :

Belfast, Northern Ireland

Belfast International Airport

latitude: 54-39N, longitude: 006-13W, elevation: 81 m

Current weather observation

The report was made 29 minutes ago, at 06:50 UTC
Wind 8 kt from the Southeast
Temperature 19°C
Humidity 78%
Pressure 1016 hPa
Visibility 10 km or more
no clouds below 1500 m and no cumulonimbus

METAR: EGAA 260650Z 13008KT CAVOK 19/15 Q1016

Time: 08:19 (07:19 UTC)

Forecast

The report was made 2 hours and 23 minutes ago, at 04:56 UTC
Forecast valid from 26 at 06 UTC to 27 at 06 UTC
Wind 9 kt from the South/Southeast
Visibility 10 km or more
Scattered clouds at a height of 4000 ft
Probability 40% :
Temporary
from 26 at 09 UTC to 26 at 18 UTC
Wind 15 kt from the South/Southeast with gusts up to 25 kt

TAF: EGAA 260456Z 2606/2706 15009KT 9999 SCT040 PROB40 TEMPO 2609/2618 15015G25KT

Weather observations and forecasts of more than 4000 airports (METAR and TAF reports).

The available stations are represented by yellow and red dots on the map.

Hover mouse over dot to see the name of the station.

Then click to see weather observations and forecasts.

To change the map : click on the green buttons with a black cross to zoom in, on the green button with a dash to zoom out, or on the green arrows for adjacent maps.


METAR-TAF: